Time;durP1;ratioP1;P1;durP2;ratioP2;P2;SDS_P1;SDS_P2;PMS_P1;PMS_P2;Temp;Humidity;BMP_temperature;BMP_pressure;BME280_temperature;BME280_humidity;BME280_pressure;Samples;Min_cycle;Max_cycle;Signal;HPM_P1;HPM_P2
2023/08/08 00:00:36;;;;;;;1.40;1.30;;;;;;;14.01;98.52;98655.13;4204522;28;20222;-47
2023/08/08 00:02:37;;;;;;;1.55;1.10;;;;;;;13.91;98.73;98666.06;4202429;28;20253;-48
2023/08/08 00:04:39;;;;;;;3.03;1.25;;;;;;;13.81;98.93;98660.53;4208820;28;20266;-47
2023/08/08 00:06:41;;;;;;;1.23;1.10;;;;;;;13.91;98.94;98655.06;4201159;28;20756;-47
2023/08/08 00:08:43;;;;;;;1.40;0.98;;;;;;;13.85;99.34;98661.66;4223983;28;20221;-47
2023/08/08 00:10:44;;;;;;;2.22;1.10;;;;;;;13.81;99.85;98670.69;4204360;28;20630;-48
2023/08/08 00:12:46;;;;;;;11.23;1.20;;;;;;;13.69;100.00;98672.84;4199973;28;20284;-47
2023/08/08 00:14:48;;;;;;;2.40;1.20;;;;;;;13.73;100.00;98662.97;4201684;28;20214;-47
2023/08/08 00:16:49;;;;;;;4.20;1.15;;;;;;;13.66;100.00;98663.22;4201842;28;20207;-47
2023/08/08 00:18:53;;;;;;;1.15;1.05;;;;;;;13.76;100.00;98668.75;4202053;28;20600;-47
2023/08/08 00:20:55;;;;;;;2.38;1.17;;;;;;;13.67;100.00;98664.03;4207175;28;20262;-47
2023/08/08 00:22:57;;;;;;;3.47;0.80;;;;;;;13.65;100.00;98657.97;4206321;28;20234;-47
2023/08/08 00:24:58;;;;;;;2.05;1.30;;;;;;;13.70;100.00;98653.31;4192529;28;20688;-47
2023/08/08 00:27:00;;;;;;;1.65;1.27;;;;;;;13.69;100.00;98657.16;4202065;28;20211;-47
2023/08/08 00:29:02;;;;;;;1.25;0.90;;;;;;;13.60;100.00;98658.78;4202655;28;20206;-48
2023/08/08 00:31:03;;;;;;;1.05;0.98;;;;;;;13.61;100.00;98659.59;4186387;28;20207;-48
2023/08/08 00:33:05;;;;;;;1.30;1.20;;;;;;;13.56;100.00;98657.63;4203633;28;20707;-47
2023/08/08 00:35:08;;;;;;;1.70;1.13;;;;;;;13.54;100.00;98659.84;4204730;28;20206;-47
2023/08/08 00:37:09;;;;;;;4.25;1.50;;;;;;;13.49;100.00;98659.78;4202413;28;20219;-49
2023/08/08 00:39:11;;;;;;;2.67;1.20;;;;;;;13.59;100.00;98657.13;4186293;28;20822;-49
2023/08/08 00:41:13;;;;;;;5.18;1.05;;;;;;;13.50;100.00;98650.44;4203971;28;20292;-48
2023/08/08 00:43:15;;;;;;;3.42;1.23;;;;;;;13.53;100.00;98658.19;4203220;28;20284;-47
2023/08/08 00:45:16;;;;;;;2.47;1.65;;;;;;;13.50;100.00;98664.19;4202086;28;20299;-47
2023/08/08 00:47:18;;;;;;;1.63;1.30;;;;;;;13.43;100.00;98669.09;4219005;28;20205;-47
2023/08/08 00:49:20;;;;;;;0.93;0.90;;;;;;;13.41;100.00;98668.53;4205837;28;20203;-48
2023/08/08 00:51:24;;;;;;;1.27;1.17;;;;;;;13.40;100.00;98664.13;4220706;28;20581;-47
2023/08/08 00:53:28;;;;;;;1.20;1.10;;;;;;;13.25;100.00;98658.50;4204422;28;20198;-47
2023/08/08 00:55:30;;;;;;;1.30;1.20;;;;;;;13.24;100.00;98659.59;4186560;28;20211;-47
2023/08/08 00:57:32;;;;;;;1.10;1.00;;;;;;;13.26;100.00;98657.44;4224551;28;20671;-47
2023/08/08 00:59:33;;;;;;;1.13;0.98;;;;;;;13.15;100.00;98655.69;4220967;28;20210;-47
2023/08/08 01:01:35;;;;;;;1.13;1.05;;;;;;;13.22;100.00;98653.56;4201707;28;20857;-46
2023/08/08 01:03:37;;;;;;;1.60;0.98;;;;;;;13.20;100.00;98653.00;4202977;28;20270;-48
2023/08/08 01:05:48;;;;;;;4.70;1.42;;;;;;;13.17;100.00;98652.69;4209126;28;20211;-47
2023/08/08 01:08:16;;;;;;;1.45;1.23;;;;;;;13.09;100.00;98656.75;4225007;28;20642;-47
2023/08/08 01:10:27;;;;;;;2.08;1.58;;;;;;;13.15;100.00;98644.72;4179999;28;20208;-47
2023/08/08 01:12:28;;;;;;;3.75;1.27;;;;;;;13.14;100.00;98643.06;4207307;28;20218;-47
2023/08/08 01:14:32;;;;;;;3.33;1.58;;;;;;;13.10;100.00;98652.09;4203325;28;20671;-47
2023/08/08 01:16:34;;;;;;;2.05;1.17;;;;;;;13.05;100.00;98647.38;4202581;28;20215;-47
2023/08/08 01:18:36;;;;;;;1.10;1.00;;;;;;;12.73;100.00;98652.03;4208250;28;20232;-47
2023/08/08 01:20:39;;;;;;;2.03;1.60;;;;;;;12.94;100.00;98645.63;4194240;28;20211;-47
2023/08/08 01:22:56;;;;;;;4.40;1.27;;;;;;;12.94;100.00;98650.25;4208311;28;20226;-47
2023/08/08 01:24:59;;;;;;;1.38;1.20;;;;;;;12.97;100.00;98641.56;4188975;28;20199;-48
2023/08/08 01:27:01;;;;;;;1.50;1.38;;;;;;;12.93;100.00;98652.19;4211053;28;20217;-48
2023/08/08 01:29:03;;;;;;;2.80;1.30;;;;;;;12.97;100.00;98647.84;4202700;28;20802;-48
2023/08/08 01:31:04;;;;;;;3.33;1.73;;;;;;;13.01;100.00;98649.00;4204395;28;21046;-47
2023/08/08 01:33:07;;;;;;;7.80;1.58;;;;;;;12.89;100.00;98645.56;4205110;28;20231;-47
2023/08/08 01:35:09;;;;;;;3.17;1.25;;;;;;;12.95;100.00;98641.81;4203626;28;20332;-47
2023/08/08 01:37:14;;;;;;;1.70;1.38;;;;;;;12.83;100.00;98641.13;4204962;28;20240;-47
2023/08/08 01:39:21;;;;;;;1.52;1.10;;;;;;;12.83;100.00;98645.78;4206526;28;20268;-47
2023/08/08 01:41:23;;;;;;;1.40;1.30;;;;;;;12.78;100.00;98646.56;4210882;28;20716;-47
2023/08/08 01:43:25;;;;;;;3.03;1.50;;;;;;;12.82;100.00;98644.94;4211121;28;20545;-47
2023/08/08 01:45:27;;;;;;;1.40;1.30;;;;;;;12.83;100.00;98654.03;4215987;28;20272;-47
2023/08/08 01:47:29;;;;;;;7.00;1.60;;;;;;;12.90;100.00;98649.97;4205806;28;20218;-47
2023/08/08 01:49:31;;;;;;;2.47;1.35;;;;;;;12.86;100.00;98665.31;4204801;28;20683;-47
2023/08/08 01:51:33;;;;;;;1.90;1.58;;;;;;;12.82;100.00;98655.94;4204236;28;20250;-48
2023/08/08 01:53:34;;;;;;;5.03;2.47;;;;;;;12.93;100.00;98649.44;4201922;28;20245;-48
2023/08/08 01:55:37;;;;;;;3.70;1.38;;;;;;;13.00;100.00;98654.75;4200329;28;20603;-47
2023/08/08 01:57:39;;;;;;;14.25;1.70;;;;;;;13.01;100.00;98649.00;4224761;28;20209;-47
2023/08/08 01:59:40;;;;;;;2.53;1.25;;;;;;;12.93;100.00;98651.34;4203954;28;20265;-48
2023/08/08 02:01:42;;;;;;;1.80;1.35;;;;;;;12.95;100.00;98655.53;4209540;28;20245;-47
2023/08/08 02:03:44;;;;;;;7.30;1.40;;;;;;;13.09;100.00;98653.19;4221984;28;20210;-49
2023/08/08 02:05:46;;;;;;;2.35;1.45;;;;;;;13.06;100.00;98649.06;4210946;28;20257;-48
2023/08/08 02:07:47;;;;;;;2.65;1.30;;;;;;;13.01;100.00;98643.50;4210547;28;20276;-47
2023/08/08 02:09:50;;;;;;;1.20;1.10;;;;;;;13.00;100.00;98652.00;4211022;28;20207;-47
2023/08/08 02:11:52;;;;;;;1.50;1.40;;;;;;;13.02;100.00;98647.91;4208761;28;20596;-47
2023/08/08 02:13:54;;;;;;;1.23;1.13;;;;;;;13.06;100.00;98657.28;4205351;28;20216;-47
2023/08/08 02:15:55;;;;;;;1.40;1.27;;;;;;;13.09;100.00;98645.75;4203595;28;20265;-48
2023/08/08 02:17:59;;;;;;;2.80;1.17;;;;;;;13.18;100.00;98660.66;4199468;28;20629;-47
2023/08/08 02:20:01;;;;;;;1.67;1.42;;;;;;;13.12;100.00;98656.25;4203932;28;20211;-48
2023/08/08 02:22:03;;;;;;;1.63;1.40;;;;;;;13.20;100.00;98647.50;4207547;28;20698;-47
2023/08/08 02:24:04;;;;;;;2.70;1.17;;;;;;;13.18;100.00;98649.66;4201881;28;20273;-47
2023/08/08 02:26:06;;;;;;;2.00;1.10;;;;;;;13.16;100.00;98646.38;4193551;28;20216;-47
2023/08/08 02:28:08;;;;;;;1.20;1.10;;;;;;;13.22;100.00;98647.22;4206179;28;20206;-48
2023/08/08 02:30:10;;;;;;;1.30;1.17;;;;;;;13.24;100.00;98645.06;4189648;28;20216;-47
2023/08/08 02:32:13;;;;;;;3.40;1.48;;;;;;;13.20;100.00;98647.50;4193487;28;20215;-47
2023/08/08 02:34:14;;;;;;;2.55;1.63;;;;;;;13.16;100.00;98648.31;4203898;28;20207;-47
2023/08/08 02:36:17;;;;;;;2.42;1.20;;;;;;;13.19;100.00;98645.00;4203397;28;20299;-48
2023/08/08 02:38:19;;;;;;;5.70;1.30;;;;;;;13.27;100.00;98648.09;4203736;28;20202;-47
2023/08/08 02:40:23;;;;;;;5.32;1.20;;;;;;;13.23;100.00;98635.97;4207094;28;20299;-47
2023/08/08 02:42:25;;;;;;;4.70;0.98;;;;;;;13.27;100.00;98637.13;4204842;28;20696;-47
2023/08/08 02:44:27;;;;;;;1.40;1.30;;;;;;;13.15;100.00;98633.72;4202975;28;20203;-47
2023/08/08 02:46:29;;;;;;;1.58;1.30;;;;;;;13.10;100.00;98630.94;4205153;28;20203;-47
2023/08/08 02:48:31;;;;;;;2.17;1.30;;;;;;;13.15;100.00;98639.22;4221569;28;20207;-47
2023/08/08 02:50:33;;;;;;;1.50;1.15;;;;;;;13.12;100.00;98639.75;4202718;28;20773;-47
2023/08/08 02:52:34;;;;;;;2.08;1.67;;;;;;;13.14;100.00;98626.56;4202543;28;20254;-47
2023/08/08 02:54:36;;;;;;;1.42;1.02;;;;;;;13.07;100.00;98636.97;4209167;28;20210;-47
2023/08/08 02:56:38;;;;;;;2.00;1.33;;;;;;;13.06;100.00;98638.06;4203843;28;20203;-47
2023/08/08 02:58:40;;;;;;;1.95;1.40;;;;;;;13.13;100.00;98640.56;4205170;28;20241;-49
2023/08/08 03:00:41;;;;;;;1.08;1.02;;;;;;;13.02;100.00;98639.66;4202078;28;20211;-47
2023/08/08 03:02:43;;;;;;;1.83;1.45;;;;;;;13.04;100.00;98637.47;4206306;28;20246;-47
2023/08/08 03:04:45;;;;;;;2.10;1.30;;;;;;;13.06;100.00;98635.31;4221712;28;20222;-47
2023/08/08 03:06:49;;;;;;;1.05;1.05;;;;;;;13.00;100.00;98635.50;4205860;28;20902;-47
2023/08/08 03:08:51;;;;;;;2.10;1.27;;;;;;;13.00;100.00;98636.34;4187334;28;20207;-47
2023/08/08 03:10:52;;;;;;;1.42;1.13;;;;;;;12.98;100.00;98635.78;4209791;28;20214;-47
2023/08/08 03:12:54;;;;;;;2.45;1.65;;;;;;;13.02;100.00;98639.66;4193242;28;20294;-47
2023/08/08 03:14:56;;;;;;;2.95;1.40;;;;;;;12.93;100.00;98635.72;4202425;28;20275;-47
2023/08/08 03:16:58;;;;;;;1.52;1.23;;;;;;;12.83;100.00;98635.63;4209508;28;21118;-47
2023/08/08 03:19:02;;;;;;;1.98;1.50;;;;;;;12.88;100.00;98635.66;4220364;28;20707;-46
2023/08/08 03:21:04;;;;;;;1.40;1.30;;;;;;;12.85;100.00;98633.44;4205116;28;20332;-47
2023/08/08 03:23:05;;;;;;;2.17;1.40;;;;;;;12.80;100.00;98630.66;4222154;28;20237;-47
2023/08/08 03:25:08;;;;;;;1.45;1.08;;;;;;;12.76;100.00;98629.50;4203338;28;20211;-47
2023/08/08 03:27:09;;;;;;;1.25;1.02;;;;;;;12.79;100.00;98634.50;4191000;28;20214;-47
2023/08/08 03:29:12;;;;;;;1.85;1.17;;;;;;;12.75;100.00;98633.34;4201566;28;20204;-49
2023/08/08 03:31:14;;;;;;;2.22;1.42;;;;;;;12.72;100.00;98628.41;4203945;28;20222;-47
2023/08/08 03:33:16;;;;;;;1.35;1.08;;;;;;;12.70;100.00;98630.56;4205226;28;20222;-47
2023/08/08 03:35:18;;;;;;;1.38;1.20;;;;;;;12.70;100.00;98625.06;4189817;28;20850;-48
2023/08/08 03:37:19;;;;;;;1.30;1.20;;;;;;;12.71;100.00;98626.72;4208679;28;20211;-47
2023/08/08 03:39:21;;;;;;;1.40;1.30;;;;;;;12.67;100.00;98620.13;4209670;28;21038;-47
2023/08/08 03:41:23;;;;;;;1.52;1.15;;;;;;;12.62;100.00;98621.97;4202573;28;20206;-48
2023/08/08 03:43:25;;;;;;;1.17;1.08;;;;;;;12.62;100.00;98622.81;4198442;28;20336;-47
2023/08/08 03:45:27;;;;;;;1.67;1.58;;;;;;;12.59;100.00;98617.84;4208592;28;20211;-48
2023/08/08 03:47:29;;;;;;;6.05;1.75;;;;;;;12.58;100.00;98626.34;4210675;28;20210;-48
2023/08/08 03:49:30;;;;;;;2.50;1.13;;;;;;;12.57;100.00;98614.50;4201774;28;20202;-47
2023/08/08 03:51:32;;;;;;;3.50;1.33;;;;;;;12.52;100.00;98617.22;4203717;28;20203;-48
2023/08/08 03:53:34;;;;;;;3.80;1.45;;;;;;;12.52;100.00;98614.50;4202500;28;20199;-47
2023/08/08 03:55:36;;;;;;;2.08;1.45;;;;;;;12.44;100.00;98620.41;4187318;28;20249;-47
2023/08/08 03:57:38;;;;;;;1.20;1.10;;;;;;;12.44;100.00;98614.94;4209033;28;20215;-47
2023/08/08 03:59:39;;;;;;;4.82;1.42;;;;;;;12.45;100.00;98613.84;4200434;28;20625;-46
2023/08/08 04:01:41;;;;;;;1.70;1.35;;;;;;;12.36;100.00;98612.66;4189759;28;20576;-47
2023/08/08 04:03:43;;;;;;;2.03;1.20;;;;;;;12.43;100.00;98617.97;4203734;28;20210;-48
2023/08/08 04:05:48;;;;;;;1.48;1.38;;;;;;;12.33;100.00;98618.69;4204460;28;20753;-48
2023/08/08 04:07:50;;;;;;;1.17;0.90;;;;;;;12.37;100.00;98628.03;4222506;28;20217;-47
2023/08/08 04:09:52;;;;;;;1.20;1.10;;;;;;;12.32;100.00;98618.94;4206417;28;20263;-47
2023/08/08 04:11:54;;;;;;;2.03;1.50;;;;;;;12.35;100.00;98626.63;4204526;28;20227;-47
2023/08/08 04:13:56;;;;;;;1.63;1.02;;;;;;;12.26;100.00;98623.53;4202068;28;20210;-47
2023/08/08 04:15:57;;;;;;;2.03;1.55;;;;;;;12.31;100.00;98631.00;4204549;28;20207;-47
2023/08/08 04:17:59;;;;;;;2.47;1.30;;;;;;;12.29;100.00;98634.00;4202176;28;20215;-47
2023/08/08 04:20:01;;;;;;;1.88;1.58;;;;;;;12.20;100.00;98630.06;4203481;28;20580;-47
2023/08/08 04:22:03;;;;;;;6.40;1.23;;;;;;;12.18;100.00;98632.22;4221431;28;21206;-48
2023/08/08 04:24:07;;;;;;;3.97;1.40;;;;;;;12.18;100.00;98632.22;4202519;28;20671;-47
2023/08/08 04:26:09;;;;;;;1.40;1.30;;;;;;;12.20;100.00;98627.31;4202730;28;20690;-47
2023/08/08 04:28:11;;;;;;;1.42;1.13;;;;;;;12.18;100.00;98632.22;4200867;28;20256;-48
2023/08/08 04:30:12;;;;;;;1.75;1.50;;;;;;;12.19;100.00;98633.91;4192504;28;20708;-48
2023/08/08 04:32:14;;;;;;;1.75;1.65;;;;;;;12.19;100.00;98628.41;4207971;28;20227;-47
2023/08/08 04:34:17;;;;;;;3.30;1.92;;;;;;;12.19;100.00;98631.16;4208960;28;20210;-48
2023/08/08 04:36:18;;;;;;;2.70;1.75;;;;;;;12.23;100.00;98629.53;4205655;28;20214;-47
2023/08/08 04:38:20;;;;;;;2.13;1.70;;;;;;;12.29;100.00;98627.66;4203261;28;20260;-47
2023/08/08 04:40:22;;;;;;;2.72;1.67;;;;;;;12.29;100.00;98628.50;4185905;28;20650;-47
2023/08/08 04:42:23;;;;;;;3.22;1.52;;;;;;;12.17;100.00;98625.06;4201255;28;20238;-47
2023/08/08 04:44:25;;;;;;;1.75;1.42;;;;;;;12.20;100.00;98624.56;4202185;28;20210;-49
2023/08/08 04:46:27;;;;;;;5.63;2.58;;;;;;;12.16;100.00;98619.88;4204852;28;20721;-47
2023/08/08 04:48:29;;;;;;;1.85;1.75;;;;;;;12.19;100.00;98622.09;4200971;28;20214;-46
2023/08/08 04:50:30;;;;;;;2.05;1.52;;;;;;;12.09;100.00;98631.03;4202159;28;20268;-47
2023/08/08 04:52:32;;;;;;;3.30;1.40;;;;;;;12.09;100.00;98621.94;4202521;28;20275;-47
2023/08/08 04:54:34;;;;;;;1.77;1.45;;;;;;;12.13;100.00;98634.91;4194111;28;20207;-48
2023/08/08 04:56:35;;;;;;;1.80;1.35;;;;;;;12.12;100.00;98632.44;4224968;28;20210;-47
2023/08/08 04:58:37;;;;;;;2.20;1.65;;;;;;;12.13;100.00;98632.19;4226442;27;20213;-47
2023/08/08 05:00:39;;;;;;;2.92;1.52;;;;;;;12.19;100.00;98633.06;4208031;28;20202;-47
2023/08/08 05:02:41;;;;;;;1.95;1.63;;;;;;;12.20;100.00;98634.72;4204537;28;20742;-47
2023/08/08 05:04:43;;;;;;;2.50;1.70;;;;;;;12.21;100.00;98626.22;4206493;28;20214;-47
2023/08/08 05:06:46;;;;;;;3.00;2.13;;;;;;;12.21;100.00;98630.88;4208035;28;20768;-47
2023/08/08 05:08:51;;;;;;;7.32;1.25;;;;;;;12.21;100.00;98633.63;4205546;28;20210;-48
2023/08/08 05:10:53;;;;;;;2.38;1.40;;;;;;;12.24;100.00;98631.19;4212166;28;20206;-47
2023/08/08 05:12:55;;;;;;;2.05;1.83;;;;;;;12.30;100.00;98640.31;4186422;28;20235;-47
2023/08/08 05:14:57;;;;;;;2.60;1.58;;;;;;;12.33;100.00;98639.78;4211037;28;20214;-47
2023/08/08 05:16:58;;;;;;;3.38;2.22;;;;;;;12.37;100.00;98641.75;4206230;28;20215;-48
2023/08/08 05:19:00;;;;;;;1.48;1.33;;;;;;;12.41;100.00;98633.84;4211271;28;20207;-47
2023/08/08 05:21:02;;;;;;;3.03;1.88;;;;;;;12.52;100.00;98633.69;4189513;28;20210;-47
2023/08/08 05:23:03;;;;;;;1.70;1.50;;;;;;;12.49;100.00;98642.44;4206562;28;20281;-48
2023/08/08 05:25:06;;;;;;;3.17;1.92;;;;;;;12.52;100.00;98633.69;4204236;28;20273;-47
2023/08/08 05:27:08;;;;;;;9.38;1.95;;;;;;;12.57;100.00;98630.16;4213568;28;20754;-47
2023/08/08 05:29:09;;;;;;;2.80;1.60;;;;;;;12.59;100.00;98630.72;4222824;28;20262;-47
2023/08/08 05:31:11;;;;;;;3.25;1.60;;;;;;;12.74;100.00;98631.72;4191153;28;20643;-48
2023/08/08 05:33:13;;;;;;;3.15;1.90;;;;;;;12.84;100.00;98631.78;4210667;28;20222;-47
2023/08/08 05:35:15;;;;;;;3.25;1.77;;;;;;;12.79;100.00;98631.75;4209173;28;20202;-48
2023/08/08 05:37:17;;;;;;;5.63;1.77;;;;;;;12.91;100.00;98632.38;4204341;28;20705;-47
2023/08/08 05:39:19;;;;;;;2.50;1.50;;;;;;;12.93;100.00;98635.72;4197808;28;20207;-48
2023/08/08 05:41:20;;;;;;;2.10;1.50;;;;;;;13.08;100.00;98632.28;4205874;28;20206;-47
2023/08/08 05:43:22;;;;;;;4.95;1.92;;;;;;;13.21;100.00;98640.91;4191893;28;20235;-47
2023/08/08 05:45:24;;;;;;;3.80;2.00;;;;;;;13.34;100.00;98642.38;4206488;28;20610;-47
2023/08/08 05:47:26;;;;;;;4.35;1.70;;;;;;;13.61;100.00;98638.44;4210858;28;20340;-48
2023/08/08 05:49:28;;;;;;;3.67;1.70;;;;;;;13.64;100.00;98643.38;4205041;28;20219;-48
2023/08/08 05:51:29;;;;;;;3.40;1.55;;;;;;;13.87;100.00;98631.97;4203934;28;20211;-49
2023/08/08 05:53:32;;;;;;;5.30;1.95;;;;;;;13.78;100.00;98630.00;4205681;28;20203;-49
2023/08/08 05:55:34;;;;;;;2.95;1.40;;;;;;;14.01;100.00;98638.63;4188086;28;20211;-47
2023/08/08 05:57:36;;;;;;;3.47;1.85;;;;;;;13.99;100.00;98629.81;4205295;28;20217;-48
2023/08/08 05:59:37;;;;;;;4.75;1.80;;;;;;;14.21;100.00;98626.88;4210066;28;20210;-47
2023/08/08 06:01:39;;;;;;;3.30;1.38;;;;;;;14.32;100.00;98623.06;4220150;28;20213;-47
2023/08/08 06:03:42;;;;;;;2.05;1.70;;;;;;;14.58;100.00;98628.34;4205820;28;20241;-47
2023/08/08 06:05:44;;;;;;;1.88;1.65;;;;;;;14.60;100.00;98634.44;4210596;28;20296;-48
2023/08/08 06:07:46;;;;;;;3.67;2.05;;;;;;;14.62;100.00;98634.97;4214438;28;20668;-48
2023/08/08 06:09:47;;;;;;;2.70;1.45;;;;;;;14.62;100.00;98634.97;4189169;28;20265;-47
2023/08/08 06:11:49;;;;;;;4.30;1.67;;;;;;;14.87;100.00;98628.66;4206140;28;20238;-48
2023/08/08 06:13:51;;;;;;;10.82;1.73;;;;;;;15.07;100.00;98632.25;4205292;28;20333;-47
2023/08/08 06:15:52;;;;;;;2.17;1.63;;;;;;;14.95;100.00;98628.09;4204001;28;20295;-47
2023/08/08 06:17:54;;;;;;;1.90;1.52;;;;;;;14.93;100.00;98631.16;4204249;28;20215;-48
2023/08/08 06:19:56;;;;;;;1.58;1.10;;;;;;;15.08;99.85;98638.56;4204975;28;20218;-47
2023/08/08 06:22:03;;;;;;;1.95;1.48;;;;;;;15.13;99.14;98639.44;4202431;28;20249;-47
2023/08/08 06:24:05;;;;;;;4.05;1.60;;;;;;;15.08;98.75;98633.91;4209360;28;21162;-47
2023/08/08 06:26:07;;;;;;;2.17;1.40;;;;;;;15.41;97.94;98635.28;4203197;28;20786;-48
2023/08/08 06:28:08;;;;;;;2.00;1.48;;;;;;;15.39;98.47;98630.06;4220020;28;20298;-47
2023/08/08 06:30:11;;;;;;;1.40;1.10;;;;;;;15.40;96.86;98637.22;4192426;28;20753;-47
2023/08/08 06:32:12;;;;;;;3.65;1.90;;;;;;;15.61;97.17;98632.47;4211049;28;20648;-47
2023/08/08 06:34:15;;;;;;;2.10;1.35;;;;;;;15.87;97.66;98642.34;4200580;28;20716;-46
2023/08/08 06:36:16;;;;;;;3.58;1.20;;;;;;;16.08;94.21;98639.25;4224082;28;20222;-47
2023/08/08 06:38:18;;;;;;;2.17;1.35;;;;;;;16.14;93.44;98638.13;4205907;28;20207;-47
2023/08/08 06:40:21;;;;;;;4.40;1.38;;;;;;;16.16;91.98;98638.66;4209194;28;20210;-47
2023/08/08 06:42:22;;;;;;;1.85;1.13;;;;;;;16.12;90.92;98631.22;4203429;28;20231;-47
2023/08/08 06:44:24;;;;;;;3.38;1.00;;;;;;;16.16;91.67;98632.31;4193861;28;20207;-47
2023/08/08 06:46:26;;;;;;;2.30;1.50;;;;;;;15.93;92.02;98631.03;4203606;28;20219;-47
2023/08/08 06:48:28;;;;;;;1.10;0.93;;;;;;;16.04;90.70;98635.38;4189268;28;20602;-47
2023/08/08 06:50:30;;;;;;;6.05;1.10;;;;;;;16.15;91.55;98631.47;4204045;28;20214;-48
2023/08/08 06:52:31;;;;;;;1.88;1.58;;;;;;;16.43;90.95;98630.81;4205888;28;20255;-47
2023/08/08 06:54:33;;;;;;;7.47;1.60;;;;;;;16.56;89.15;98635.72;4204061;28;20215;-47
2023/08/08 06:56:35;;;;;;;2.97;1.27;;;;;;;16.46;88.94;98630.25;4204052;28;20279;-49
2023/08/08 06:58:37;;;;;;;3.40;1.42;;;;;;;16.42;89.02;98629.16;4188066;28;20254;-47
2023/08/08 07:00:39;;;;;;;1.98;0.90;;;;;;;16.58;86.08;98632.66;4208552;28;20206;-47
2023/08/08 07:02:41;;;;;;;2.95;1.10;;;;;;;16.32;86.29;98629.19;4207551;28;20219;-47
2023/08/08 07:04:43;;;;;;;1.98;1.20;;;;;;;16.42;86.82;98628.34;4203404;28;20215;-48
2023/08/08 07:06:45;;;;;;;2.22;1.10;;;;;;;16.59;85.95;98629.63;4203216;28;20710;-47
2023/08/08 07:08:46;;;;;;;2.75;1.08;;;;;;;16.96;86.99;98634.63;4202857;28;20216;-47
2023/08/08 07:10:48;;;;;;;4.20;1.02;;;;;;;16.76;83.91;98641.09;4202164;28;20207;-47
2023/08/08 07:12:50;;;;;;;2.33;1.20;;;;;;;16.70;83.82;98633.97;4201984;28;20661;-47
2023/08/08 07:14:52;;;;;;;3.10;1.30;;;;;;;17.23;84.66;98636.59;4202632;28;20206;-47
2023/08/08 07:16:54;;;;;;;8.45;1.48;;;;;;;17.47;82.62;98642.22;4204482;28;20218;-48
2023/08/08 07:18:55;;;;;;;6.25;1.00;;;;;;;17.50;80.15;98630.56;4207415;28;20704;-47
2023/08/08 07:20:57;;;;;;;2.58;1.17;;;;;;;17.87;81.50;98636.25;4200687;28;20654;-47
2023/08/08 07:23:00;;;;;;;2.00;0.80;;;;;;;17.74;79.86;98631.44;4202281;28;20696;-47
2023/08/08 07:25:03;;;;;;;2.28;0.85;;;;;;;17.63;77.93;98624.34;4201643;28;20264;-47
2023/08/08 07:27:04;;;;;;;1.88;1.15;;;;;;;17.46;79.87;98624.78;4205669;28;20867;-47
2023/08/08 07:29:06;;;;;;;1.50;0.80;;;;;;;17.34;80.24;98631.78;4207853;28;20933;-47
2023/08/08 07:31:08;;;;;;;2.47;1.08;;;;;;;17.17;80.11;98631.38;4200234;28;20245;-47
2023/08/08 07:33:10;;;;;;;2.80;0.90;;;;;;;17.07;78.79;98637.00;4204877;28;20362;-47
2023/08/08 07:35:12;;;;;;;4.45;1.10;;;;;;;17.12;80.46;98635.03;4200220;28;20240;-46
2023/08/08 07:37:14;;;;;;;2.13;1.00;;;;;;;16.96;79.13;98640.97;4204223;28;20222;-46
2023/08/08 07:39:16;;;;;;;2.63;1.10;;;;;;;17.14;79.21;98641.13;4201858;28;20256;-46
2023/08/08 07:41:18;;;;;;;2.08;1.23;;;;;;;17.42;78.88;98636.72;4202931;28;20206;-48
2023/08/08 07:43:20;;;;;;;1.52;1.08;;;;;;;17.48;79.81;98632.78;4204481;28;20230;-47
2023/08/08 07:45:23;;;;;;;2.47;1.10;;;;;;;17.73;77.72;98635.31;4203689;28;20691;-48
2023/08/08 07:47:24;;;;;;;2.38;1.25;;;;;;;17.61;75.69;98638.50;4202695;28;20207;-47
2023/08/08 07:49:26;;;;;;;4.72;1.20;;;;;;;18.05;76.95;98638.28;4188072;28;20269;-46
2023/08/08 07:51:28;;;;;;;3.70;1.10;;;;;;;18.06;74.21;98626.06;4201270;28;20202;-46
2023/08/08 07:53:29;;;;;;;1.42;1.10;;;;;;;18.39;75.43;98634.25;4206660;28;20650;-46
2023/08/08 07:55:31;;;;;;;2.35;1.38;;;;;;;18.36;75.07;98628.47;4202809;28;20268;-47
2023/08/08 07:57:36;;;;;;;2.30;0.90;;;;;;;18.03;73.69;98621.94;4187197;28;20210;-46
2023/08/08 07:59:37;;;;;;;2.05;1.00;;;;;;;17.78;72.85;98632.50;4202372;28;20202;-47
2023/08/08 08:01:39;;;;;;;1.92;0.90;;;;;;;17.96;72.63;98624.25;4210017;28;20615;-47
2023/08/08 08:03:41;;;;;;;1.65;0.88;;;;;;;18.22;75.18;98633.91;4203407;28;20232;-47
2023/08/08 08:05:43;;;;;;;2.80;1.02;;;;;;;18.54;75.17;98630.44;4204872;28;20210;-46
2023/08/08 08:07:45;;;;;;;1.63;0.90;;;;;;;18.68;71.21;98637.75;4202987;28;20264;-46
2023/08/08 08:09:47;;;;;;;3.10;1.10;;;;;;;18.60;73.25;98629.25;4219933;28;20645;-46
2023/08/08 08:11:49;;;;;;;2.80;1.17;;;;;;;18.94;71.72;98629.84;4186298;28;20235;-46
2023/08/08 08:13:51;;;;;;;3.47;1.00;;;;;;;19.02;71.55;98626.38;4186148;28;20258;-47
2023/08/08 08:15:53;;;;;;;2.22;0.90;;;;;;;19.03;70.89;98628.88;4208422;28;20207;-47
2023/08/08 08:17:54;;;;;;;1.63;0.70;;;;;;;19.20;69.20;98631.13;4203036;28;20207;-46
2023/08/08 08:19:56;;;;;;;1.95;1.13;;;;;;;18.73;69.54;98628.50;4202474;28;20587;-46
2023/08/08 08:21:58;;;;;;;6.55;1.60;;;;;;;18.94;68.61;98619.59;4201435;28;20597;-46
2023/08/08 08:24:02;;;;;;;1.30;0.90;;;;;;;18.75;66.73;98623.47;4201229;28;20320;-48
2023/08/08 08:26:03;;;;;;;1.17;0.70;;;;;;;18.98;67.14;98614.28;4207529;28;20245;-47
2023/08/08 08:28:07;;;;;;;3.85;1.00;;;;;;;19.16;66.14;98622.56;4204023;28;20210;-46
2023/08/08 08:30:12;;;;;;;1.13;0.80;;;;;;;18.84;65.35;98613.38;4215109;28;20319;-46
2023/08/08 08:32:14;;;;;;;1.08;0.80;;;;;;;19.13;65.54;98616.78;4202412;28;20218;-46
2023/08/08 08:34:16;;;;;;;8.48;1.10;;;;;;;18.67;64.43;98607.53;4201364;28;20202;-46
2023/08/08 08:36:18;;;;;;;3.30;1.10;;;;;;;18.87;64.36;98619.16;4196241;28;20226;-45
2023/08/08 08:38:20;;;;;;;2.20;1.00;;;;;;;19.08;63.54;98619.63;4221535;28;20221;-46
2023/08/08 08:40:22;;;;;;;3.67;0.95;;;;;;;19.38;63.38;98608.88;4206791;28;20656;-46
2023/08/08 08:42:28;;;;;;;2.30;1.00;;;;;;;19.71;62.88;98606.91;4201379;28;20231;-46
2023/08/08 08:44:33;;;;;;;1.55;1.02;;;;;;;19.93;60.70;98604.22;4202818;28;20227;-46
2023/08/08 08:46:36;;;;;;;1.20;0.90;;;;;;;19.89;60.78;98605.97;4202310;28;20209;-47
2023/08/08 08:48:38;;;;;;;3.35;1.30;;;;;;;19.75;58.62;98610.69;4199406;28;20261;-46
2023/08/08 08:50:40;;;;;;;4.45;1.30;;;;;;;20.21;59.53;98600.34;4197787;28;20708;-46
2023/08/08 08:52:43;;;;;;;5.40;1.33;;;;;;;20.09;57.42;98598.09;4186289;28;20705;-46
2023/08/08 08:54:45;;;;;;;4.53;1.00;;;;;;;20.01;58.35;98596.00;4212579;28;20210;-46
2023/08/08 08:56:46;;;;;;;1.65;0.98;;;;;;;20.19;58.46;98603.44;4205779;28;20206;-47
2023/08/08 08:58:49;;;;;;;1.45;0.85;;;;;;;20.48;58.81;98594.75;4185216;28;20218;-46
2023/08/08 09:00:51;;;;;;;2.08;1.05;;;;;;;19.99;55.50;98595.47;4199018;28;20215;-46
2023/08/08 09:02:55;;;;;;;1.48;0.82;;;;;;;20.42;58.40;98607.09;4201607;28;20264;-47
2023/08/08 09:04:58;;;;;;;2.28;0.82;;;;;;;20.38;56.71;98597.75;4188309;28;20233;-46
2023/08/08 09:07:00;;;;;;;1.95;0.93;;;;;;;20.61;57.41;98597.50;4203523;28;20210;-45
2023/08/08 09:09:03;;;;;;;1.80;0.85;;;;;;;20.86;57.86;98601.66;4202954;28;20668;-46
2023/08/08 09:11:17;;;;;;;1.25;0.98;;;;;;;20.84;56.71;98595.59;4206527;28;20289;-47
2023/08/08 09:13:20;;;;;;;5.80;1.00;;;;;;;20.88;56.07;98600.25;4202260;28;20675;-46
2023/08/08 09:15:22;;;;;;;1.80;1.02;;;;;;;20.44;55.06;98593.75;4202802;28;20286;-46
2023/08/08 09:17:27;;;;;;;5.97;1.15;;;;;;;20.99;55.96;98603.59;4200693;28;20199;-45
2023/08/08 09:19:46;;;;;;;2.83;0.85;;;;;;;20.85;54.72;98600.00;4210388;28;20651;-45
2023/08/08 09:21:49;;;;;;;1.80;0.90;;;;;;;20.93;55.72;98607.63;4199584;28;20271;-46
2023/08/08 09:23:51;;;;;;;1.15;0.90;;;;;;;20.73;55.17;98600.56;4198734;28;21176;-47
2023/08/08 09:25:53;;;;;;;2.70;0.90;;;;;;;20.57;55.78;98598.44;4203683;28;20206;-45
2023/08/08 09:27:55;;;;;;;1.80;0.70;;;;;;;20.50;55.04;98598.06;4185215;28;20716;-46
2023/08/08 09:29:56;;;;;;;1.42;0.90;;;;;;;20.58;55.63;98591.75;4185952;28;20207;-45
2023/08/08 09:31:58;;;;;;;1.85;1.10;;;;;;;20.76;55.67;98585.19;4195309;28;20253;-45